Time;durP1;ratioP1;P1;durP2;ratioP2;P2;SDS_P1;SDS_P2;PMS_P1;PMS_P2;Temp;Humidity;BMP_temperature;BMP_pressure;BME280_temperature;BME280_humidity;BME280_pressure;Samples;Min_cycle;Max_cycle;Signal;HPM_P1;HPM_P2
2022/08/06 00:01:54;;;;;;;3.60;1.40;;;;;;;20.62;59.04;99204.41;4980402;28;20304;-63
2022/08/06 00:04:21;;;;;;;3.00;1.40;;;;;;;20.57;59.04;99204.19;4973401;28;20708;-63
2022/08/06 00:06:48;;;;;;;1.70;1.50;;;;;;;20.59;58.90;99199.50;4983388;28;20449;-63
2022/08/06 00:09:15;;;;;;;3.73;1.50;;;;;;;20.59;58.91;99202.16;4976885;28;20308;-63
2022/08/06 00:11:42;;;;;;;2.27;1.50;;;;;;;20.57;58.25;99196.25;4979018;28;20218;-63
2022/08/06 00:14:09;;;;;;;4.03;1.50;;;;;;;20.59;57.20;99193.38;4974104;28;20299;-63
2022/08/06 00:16:36;;;;;;;2.97;1.60;;;;;;;20.66;54.80;99196.84;4974435;28;20226;-63
2022/08/06 00:19:05;;;;;;;3.30;1.80;;;;;;;20.62;54.62;99206.22;4972569;28;21539;-63
2022/08/06 00:21:32;;;;;;;4.80;1.60;;;;;;;20.57;53.56;99182.97;4968546;28;20210;-62
2022/08/06 00:23:59;;;;;;;1.50;1.40;;;;;;;20.51;54.37;99194.41;4968960;28;20256;-62
2022/08/06 00:26:26;;;;;;;3.93;1.80;;;;;;;20.50;53.91;99204.16;4970391;28;20222;-62
2022/08/06 00:28:52;;;;;;;3.20;1.60;;;;;;;20.47;53.91;99198.47;4970761;28;20747;-62
2022/08/06 00:31:20;;;;;;;2.73;1.60;;;;;;;20.50;53.45;99206.81;4976858;28;20223;-62
2022/08/06 00:33:46;;;;;;;4.43;1.57;;;;;;;20.48;53.82;99211.50;4970741;28;20229;-63
2022/08/06 00:36:14;;;;;;;4.00;1.20;;;;;;;20.46;54.00;99202.13;4984417;28;20210;-63
2022/08/06 00:38:41;;;;;;;2.80;1.60;;;;;;;20.43;54.10;99208.66;4969640;28;20286;-63
2022/08/06 00:41:08;;;;;;;1.77;1.60;;;;;;;20.33;54.48;99201.09;4968286;28;20215;-63
2022/08/06 00:43:35;;;;;;;2.27;1.57;;;;;;;20.35;53.96;99207.00;4968966;28;20275;-63
2022/08/06 00:46:01;;;;;;;2.30;1.40;;;;;;;20.29;54.00;99209.63;4970406;28;20224;-63
2022/08/06 00:48:28;;;;;;;3.23;1.73;;;;;;;20.26;54.34;99207.38;4969701;28;20705;-63
2022/08/06 00:50:55;;;;;;;4.47;1.90;;;;;;;20.26;54.42;99212.69;4968972;28;20235;-63
2022/08/06 00:53:23;;;;;;;3.80;1.80;;;;;;;20.19;54.37;99210.03;4969544;28;20214;-63
2022/08/06 00:55:50;;;;;;;1.90;1.50;;;;;;;20.15;54.16;99208.78;4969766;28;20235;-63
2022/08/06 00:58:17;;;;;;;3.97;1.70;;;;;;;20.10;55.00;99214.69;4968104;28;20219;-63
2022/08/06 01:00:43;;;;;;;1.93;1.53;;;;;;;20.03;55.28;99214.66;4970901;28;20228;-63
2022/08/06 01:03:10;;;;;;;2.93;1.50;;;;;;;19.99;55.15;99220.56;4967163;28;20315;-63
2022/08/06 01:05:37;;;;;;;2.87;1.47;;;;;;;19.91;56.18;99221.53;4969397;28;20260;-62
2022/08/06 01:08:04;;;;;;;3.17;1.60;;;;;;;19.89;55.96;99221.75;4970391;28;20229;-62
2022/08/06 01:10:32;;;;;;;3.20;1.43;;;;;;;19.84;55.44;99215.34;4968234;28;20595;-61
2022/08/06 01:12:59;;;;;;;3.27;1.80;;;;;;;19.90;54.67;99219.91;4968483;28;20206;-61
2022/08/06 01:15:26;;;;;;;4.00;1.80;;;;;;;19.91;54.05;99218.88;4967228;28;20208;-61
2022/08/06 01:17:58;;;;;;;3.90;1.80;;;;;;;19.91;53.78;99222.38;4968461;28;20533;-61
2022/08/06 01:20:36;;;;;;;6.03;1.67;;;;;;;19.77;54.38;99226.72;4968448;28;20216;-62
2022/08/06 01:23:15;;;;;;;2.37;1.60;;;;;;;19.73;55.13;99222.84;4972978;28;20230;-61
2022/08/06 01:26:08;;;;;;;4.53;1.70;;;;;;;19.70;55.09;99233.03;4969243;28;20191;-61
2022/08/06 01:28:42;;;;;;;3.47;1.47;;;;;;;19.65;55.12;99224.84;4968610;28;20209;-61
2022/08/06 01:31:11;;;;;;;1.80;1.50;;;;;;;19.64;54.78;99233.81;4970091;28;20195;-61
2022/08/06 01:33:42;;;;;;;2.60;1.63;;;;;;;19.68;54.64;99238.50;4966926;28;20199;-60
2022/08/06 01:36:15;;;;;;;2.50;1.50;;;;;;;19.71;53.83;99229.34;4968254;28;20269;-60
2022/08/06 01:38:45;;;;;;;3.43;1.50;;;;;;;19.74;53.43;99239.56;4968216;28;20429;-61
2022/08/06 01:41:38;;;;;;;3.70;1.57;;;;;;;19.77;53.40;99231.22;4966239;28;20191;-61
2022/08/06 01:44:06;;;;;;;5.73;1.87;;;;;;;19.79;53.27;99231.00;4968240;28;20222;-61
2022/08/06 01:46:36;;;;;;;3.40;1.80;;;;;;;19.77;53.16;99228.56;4967528;28;20195;-61
2022/08/06 01:49:06;;;;;;;4.07;1.53;;;;;;;19.74;53.17;99232.41;4967497;28;20300;-61
2022/08/06 01:51:34;;;;;;;2.80;1.70;;;;;;;19.69;53.49;99237.47;4968134;28;20219;-61
2022/08/06 01:54:03;;;;;;;4.27;1.80;;;;;;;19.65;53.75;99230.94;4968945;28;20216;-61
2022/08/06 01:56:33;;;;;;;2.23;1.50;;;;;;;19.63;53.92;99238.25;4968379;28;20689;-61
2022/08/06 01:59:03;;;;;;;4.30;1.90;;;;;;;19.58;54.82;99230.91;4966942;28;20210;-60
2022/08/06 02:01:33;;;;;;;3.77;1.93;;;;;;;19.56;54.71;99243.53;4967613;28;20208;-61
2022/08/06 02:04:01;;;;;;;3.67;1.40;;;;;;;19.59;54.48;99242.34;4966950;28;20754;-61
2022/08/06 02:06:32;;;;;;;4.33;1.73;;;;;;;19.64;54.10;99237.25;4968705;28;20209;-61
2022/08/06 02:09:03;;;;;;;3.47;1.50;;;;;;;19.64;53.69;99233.81;4967146;28;20195;-61
2022/08/06 02:11:31;;;;;;;2.07;1.50;;;;;;;19.64;54.45;99239.09;4967067;28;20221;-62
2022/08/06 02:14:00;;;;;;;2.50;1.33;;;;;;;19.66;53.61;99240.53;4968342;28;20197;-61
2022/08/06 02:16:31;;;;;;;3.73;1.27;;;;;;;19.62;53.61;99237.47;4969531;28;20196;-61
2022/08/06 02:19:02;;;;;;;3.03;1.67;;;;;;;19.54;53.78;99234.97;4967819;28;20283;-61
2022/08/06 02:21:32;;;;;;;2.57;1.60;;;;;;;19.56;53.25;99240.09;4966681;28;20225;-61
2022/08/06 02:24:03;;;;;;;1.80;1.50;;;;;;;19.55;53.39;99238.44;4967513;28;21008;-61
2022/08/06 02:26:31;;;;;;;3.13;1.67;;;;;;;19.47;53.71;99242.88;4967309;28;20456;-62
2022/08/06 02:29:00;;;;;;;3.67;1.67;;;;;;;19.42;53.49;99242.63;4966848;28;20206;-61
2022/08/06 02:31:26;;;;;;;1.60;1.50;;;;;;;19.41;53.64;99233.06;4966081;28;20226;-61
2022/08/06 02:33:54;;;;;;;3.33;1.33;;;;;;;19.39;53.17;99240.38;4966629;28;20213;-61
2022/08/06 02:36:26;;;;;;;2.90;1.40;;;;;;;19.38;53.21;99233.44;4968030;28;20581;-61
2022/08/06 02:38:59;;;;;;;2.77;1.60;;;;;;;19.30;53.57;99241.53;4966869;28;20194;-61
2022/08/06 02:41:31;;;;;;;3.53;1.73;;;;;;;19.22;53.55;99234.53;4965871;28;20215;-61
2022/08/06 02:44:06;;;;;;;2.47;1.50;;;;;;;19.21;53.54;99242.69;4968427;28;20221;-61
2022/08/06 02:46:39;;;;;;;2.73;1.30;;;;;;;19.10;53.63;99242.19;4965333;28;20194;-61
2022/08/06 02:49:12;;;;;;;3.33;1.73;;;;;;;19.04;53.16;99253.53;4966545;28;20216;-61
2022/08/06 02:51:46;;;;;;;2.50;1.30;;;;;;;19.08;52.99;99251.34;4967039;28;20697;-61
2022/08/06 02:54:18;;;;;;;3.67;1.47;;;;;;;19.05;52.74;99249.88;4965153;28;20637;-61
2022/08/06 02:56:47;;;;;;;3.50;1.53;;;;;;;19.01;53.30;99253.91;4965970;28;20198;-61
2022/08/06 02:59:18;;;;;;;1.90;1.30;;;;;;;19.02;53.52;99255.56;4966711;28;20209;-62
2022/08/06 03:01:52;;;;;;;2.73;1.47;;;;;;;19.07;52.85;99247.88;4969609;28;20227;-61
2022/08/06 03:04:22;;;;;;;3.27;1.57;;;;;;;19.01;52.88;99251.28;4967065;28;20246;-61
2022/08/06 03:06:51;;;;;;;2.20;1.43;;;;;;;18.97;53.36;99256.16;4970309;28;20197;-61
2022/08/06 03:09:20;;;;;;;4.03;1.50;;;;;;;18.90;53.39;99252.59;4971616;28;20201;-61
2022/08/06 03:11:49;;;;;;;3.37;1.50;;;;;;;18.92;53.32;99266.44;4970186;28;20215;-61
2022/08/06 03:14:18;;;;;;;2.67;1.37;;;;;;;18.89;53.39;99261.53;4966231;28;20197;-61
2022/08/06 03:16:46;;;;;;;2.83;1.50;;;;;;;18.89;53.31;99258.88;4967950;28;20191;-61
2022/08/06 03:19:14;;;;;;;5.00;1.60;;;;;;;18.82;54.08;99261.44;4984583;28;20202;-61
2022/08/06 03:21:43;;;;;;;3.53;1.47;;;;;;;18.77;54.11;99263.84;4966787;28;20228;-62
2022/08/06 03:24:13;;;;;;;2.97;1.60;;;;;;;18.74;54.53;99267.69;4966222;28;20218;-62
2022/08/06 03:26:42;;;;;;;1.70;1.33;;;;;;;18.73;54.20;99263.41;4965709;28;20648;-61
2022/08/06 03:29:10;;;;;;;2.10;1.33;;;;;;;18.71;54.56;99270.72;4967879;28;20225;-61
2022/08/06 03:31:38;;;;;;;7.20;1.57;;;;;;;18.77;54.37;99274.41;4966483;28;20263;-61
2022/08/06 03:34:06;;;;;;;4.43;1.30;;;;;;;18.71;54.69;99265.44;4968792;28;20203;-61
2022/08/06 03:36:34;;;;;;;5.53;1.73;;;;;;;18.67;54.39;99268.63;4967594;28;20198;-61
2022/08/06 03:39:05;;;;;;;3.40;1.60;;;;;;;18.73;54.42;99260.78;4965514;28;20207;-61
2022/08/06 03:41:36;;;;;;;4.07;1.50;;;;;;;18.72;54.93;99274.16;4966269;28;20251;-61
2022/08/06 03:44:03;;;;;;;5.40;1.90;;;;;;;18.68;54.45;99276.38;4966555;28;20255;-61
2022/08/06 03:46:35;;;;;;;2.17;1.40;;;;;;;18.68;55.16;99279.03;4966734;28;20210;-61
2022/08/06 03:49:05;;;;;;;2.00;1.50;;;;;;;18.68;55.05;99280.84;4965838;28;20598;-61
2022/08/06 03:51:33;;;;;;;3.40;1.60;;;;;;;18.64;55.17;99280.41;4971246;28;20764;-61
2022/08/06 03:54:02;;;;;;;3.63;1.33;;;;;;;18.62;55.56;99271.84;4968874;28;20594;-61
2022/08/06 03:56:30;;;;;;;3.20;1.60;;;;;;;18.62;55.57;99274.47;4971891;28;20203;-61
2022/08/06 03:59:02;;;;;;;2.57;1.60;;;;;;;18.59;55.42;99273.00;4968063;28;20761;-61
2022/08/06 04:01:33;;;;;;;1.70;1.37;;;;;;;18.61;55.79;99270.19;4971564;28;20255;-61
2022/08/06 04:04:02;;;;;;;4.20;1.50;;;;;;;18.56;55.47;99270.75;4969875;28;20225;-61
2022/08/06 04:06:30;;;;;;;3.00;1.60;;;;;;;18.52;55.79;99272.16;4971964;28;20614;-61
2022/08/06 04:08:59;;;;;;;3.17;1.40;;;;;;;18.53;56.19;99278.25;4971488;28;20205;-61
2022/08/06 04:11:26;;;;;;;3.00;1.80;;;;;;;18.46;56.30;99277.34;4969493;28;20289;-61
2022/08/06 04:13:55;;;;;;;3.17;1.60;;;;;;;18.49;56.37;99276.97;4969687;28;20204;-61
2022/08/06 04:16:23;;;;;;;1.97;1.50;;;;;;;18.47;56.40;99277.19;4969873;28;20193;-61
2022/08/06 04:18:55;;;;;;;3.93;1.47;;;;;;;18.47;56.50;99279.81;4968771;28;20310;-61
2022/08/06 04:21:24;;;;;;;3.73;1.87;;;;;;;18.39;57.06;99286.03;4968521;28;20213;-61
2022/08/06 04:23:52;;;;;;;2.07;1.50;;;;;;;18.45;56.82;99287.13;4966603;28;20533;-61
2022/08/06 04:26:23;;;;;;;5.53;1.83;;;;;;;18.50;56.78;99282.09;4968893;28;20263;-60
2022/08/06 04:28:55;;;;;;;4.77;1.80;;;;;;;18.44;56.61;99286.28;4971975;28;20209;-61
2022/08/06 04:31:25;;;;;;;3.57;1.73;;;;;;;18.46;56.59;99290.56;4970877;28;21009;-61
2022/08/06 04:33:55;;;;;;;4.87;1.60;;;;;;;18.43;56.75;99297.88;4970144;28;20728;-61
2022/08/06 04:36:23;;;;;;;2.53;1.53;;;;;;;18.44;56.91;99301.34;4969003;28;20244;-61
2022/08/06 04:38:50;;;;;;;2.13;1.80;;;;;;;18.40;56.79;99306.16;4971319;28;20216;-61
2022/08/06 04:41:17;;;;;;;3.10;1.70;;;;;;;18.32;57.47;99300.19;4968033;28;20223;-61
2022/08/06 04:43:46;;;;;;;6.43;1.70;;;;;;;18.28;57.32;99310.28;4969796;28;20210;-61
2022/08/06 04:46:13;;;;;;;2.17;1.70;;;;;;;18.25;57.40;99313.28;4968126;28;20659;-60
2022/08/06 04:48:41;;;;;;;3.27;1.60;;;;;;;18.24;57.53;99304.56;4968895;28;20523;-61
2022/08/06 04:51:08;;;;;;;3.70;2.03;;;;;;;18.24;57.56;99314.28;4967836;28;20197;-61
2022/08/06 04:53:40;;;;;;;3.63;2.00;;;;;;;18.21;58.09;99318.13;4969716;28;20510;-61
2022/08/06 04:56:07;;;;;;;2.03;1.80;;;;;;;18.12;57.96;99312.09;4966538;28;20725;-62
2022/08/06 04:58:35;;;;;;;2.13;1.57;;;;;;;18.07;58.91;99317.13;4971722;28;20208;-61
2022/08/06 05:01:01;;;;;;;3.53;1.60;;;;;;;17.99;58.62;99314.56;4983787;28;20268;-61
2022/08/06 05:03:28;;;;;;;2.63;1.73;;;;;;;17.99;59.50;99325.97;4973583;28;20208;-61
2022/08/06 05:06:04;;;;;;;3.77;1.77;;;;;;;17.91;59.16;99333.16;4967873;28;20205;-61
2022/08/06 05:08:34;;;;;;;4.00;1.70;;;;;;;17.94;59.04;99330.16;4968712;28;20211;-61
2022/08/06 05:11:03;;;;;;;6.77;1.83;;;;;;;17.95;58.92;99321.22;4968911;28;20208;-61
2022/08/06 05:13:34;;;;;;;2.83;1.80;;;;;;;17.90;59.77;99328.88;4968157;28;20200;-61
2022/08/06 05:16:05;;;;;;;4.27;1.80;;;;;;;17.89;59.45;99330.66;4968978;28;20211;-61
2022/08/06 05:18:37;;;;;;;2.97;1.70;;;;;;;17.85;59.79;99330.22;4968311;28;20202;-61
2022/08/06 05:21:06;;;;;;;3.20;1.70;;;;;;;17.79;60.07;99325.66;4967738;28;20236;-61
2022/08/06 05:23:37;;;;;;;3.23;1.77;;;;;;;17.78;60.22;99331.09;4970938;28;20203;-61
2022/08/06 05:26:05;;;;;;;5.13;1.73;;;;;;;17.85;59.70;99334.66;4967999;28;20198;-61
2022/08/06 05:28:32;;;;;;;2.37;1.60;;;;;;;17.81;60.23;99330.75;4970145;28;20246;-60
2022/08/06 05:30:58;;;;;;;4.23;1.80;;;;;;;17.86;60.27;99338.94;4969933;28;20280;-61
2022/08/06 05:33:27;;;;;;;4.80;1.60;;;;;;;17.89;59.97;99335.16;4967721;28;20202;-61
2022/08/06 05:35:54;;;;;;;3.17;1.70;;;;;;;17.90;59.95;99331.50;4968633;28;20231;-61
2022/08/06 05:38:23;;;;;;;6.33;2.00;;;;;;;17.96;60.53;99341.34;4967868;28;20193;-61
2022/08/06 05:40:50;;;;;;;1.67;1.40;;;;;;;17.94;60.11;99343.34;4967063;28;20210;-60
2022/08/06 05:43:16;;;;;;;4.03;2.00;;;;;;;17.92;60.27;99348.00;4969592;28;20214;-61
2022/08/06 05:45:46;;;;;;;5.40;2.27;;;;;;;18.02;60.06;99335.34;4970107;28;20693;-61
2022/08/06 05:48:14;;;;;;;4.63;1.80;;;;;;;18.08;59.11;99350.47;4971454;28;20210;-60
2022/08/06 05:50:49;;;;;;;3.80;1.70;;;;;;;18.13;58.90;99356.03;4970334;28;20199;-60
2022/08/06 05:53:20;;;;;;;3.50;2.07;;;;;;;18.19;59.23;99354.50;4967658;28;20585;-61
2022/08/06 05:55:52;;;;;;;3.23;1.90;;;;;;;18.22;59.00;99358.56;4966330;28;20207;-60
2022/08/06 05:58:24;;;;;;;5.80;1.90;;;;;;;18.35;58.75;99364.03;4966890;28;20204;-61
2022/08/06 06:00:52;;;;;;;4.67;2.30;;;;;;;18.19;59.28;99367.69;4967628;28;20211;-60
2022/08/06 06:03:21;;;;;;;3.33;1.87;;;;;;;18.21;59.03;99368.34;4967527;28;20269;-61
2022/08/06 06:05:48;;;;;;;4.70;1.90;;;;;;;18.18;59.15;99373.16;4967676;28;20220;-60
2022/08/06 06:08:15;;;;;;;4.93;2.17;;;;;;;18.13;59.54;99385.09;4971948;28;20198;-60
2022/08/06 06:10:44;;;;;;;2.67;2.20;;;;;;;18.00;59.86;99377.00;4967979;28;20224;-61
2022/08/06 06:13:13;;;;;;;2.90;1.50;;;;;;;18.11;59.75;99381.81;4970181;28;20228;-61
2022/08/06 06:15:45;;;;;;;4.23;2.30;;;;;;;18.10;59.52;99374.88;4969029;28;20196;-61
2022/08/06 06:18:22;;;;;;;3.50;1.90;;;;;;;18.16;59.46;99376.00;4967457;28;20201;-61
2022/08/06 06:20:57;;;;;;;3.40;2.00;;;;;;;18.21;59.52;99378.06;4967333;28;20238;-61
2022/08/06 06:23:32;;;;;;;4.20;2.20;;;;;;;18.33;58.88;99383.75;4968813;28;20200;-61
2022/08/06 06:26:04;;;;;;;5.63;2.00;;;;;;;18.36;59.74;99378.09;4970112;28;20590;-61
2022/08/06 06:28:38;;;;;;;2.97;1.77;;;;;;;18.39;59.14;99370.59;4971155;28;20263;-60
2022/08/06 06:31:12;;;;;;;2.70;2.00;;;;;;;18.49;58.90;99377.44;4969060;28;20197;-61
2022/08/06 06:33:45;;;;;;;2.93;2.33;;;;;;;18.54;58.41;99370.59;4968845;28;20195;-61
2022/08/06 06:36:21;;;;;;;1.93;1.80;;;;;;;18.68;58.13;99371.56;4967492;28;20198;-60
2022/08/06 06:39:07;;;;;;;3.93;1.87;;;;;;;18.72;58.10;99377.28;4966909;28;20194;-60
2022/08/06 06:41:38;;;;;;;7.77;1.90;;;;;;;18.80;57.80;99379.84;4966587;28;20223;-60
2022/08/06 06:44:15;;;;;;;5.60;2.07;;;;;;;18.83;57.97;99376.81;4966476;28;20206;-61
2022/08/06 06:46:48;;;;;;;3.50;2.30;;;;;;;18.88;57.56;99365.69;4967065;28;20184;-61
2022/08/06 06:49:19;;;;;;;4.03;1.90;;;;;;;19.04;57.47;99369.94;4969151;28;20530;-61
2022/08/06 06:51:50;;;;;;;7.13;2.07;;;;;;;19.14;56.84;99365.16;4970319;28;20559;-61
2022/08/06 06:54:21;;;;;;;2.90;1.63;;;;;;;19.16;56.92;99367.63;4967470;28;20192;-61
2022/08/06 06:56:52;;;;;;;4.87;2.33;;;;;;;19.16;56.64;99367.63;4967451;28;20215;-61
2022/08/06 06:59:24;;;;;;;4.93;1.93;;;;;;;19.40;56.17;99362.97;4969617;28;20197;-61
2022/08/06 07:01:53;;;;;;;2.03;1.83;;;;;;;19.56;55.81;99375.13;4965287;28;20228;-61
2022/08/06 07:04:22;;;;;;;4.60;2.37;;;;;;;19.59;55.45;99375.53;4969118;28;20217;-61
2022/08/06 07:06:52;;;;;;;2.33;1.63;;;;;;;19.58;55.65;99371.25;4969255;28;20204;-61
2022/08/06 07:09:22;;;;;;;4.30;1.70;;;;;;;19.65;54.73;99373.16;4968477;28;20741;-61
2022/08/06 07:11:52;;;;;;;3.33;1.53;;;;;;;19.74;54.38;99377.28;4968352;28;20210;-61
2022/08/06 07:14:23;;;;;;;2.57;1.70;;;;;;;19.91;54.81;99383.13;4966558;28;20197;-61
2022/08/06 07:16:51;;;;;;;3.77;1.83;;;;;;;19.98;53.63;99381.34;4970161;28;20206;-60
2022/08/06 07:19:20;;;;;;;3.50;2.00;;;;;;;20.08;53.36;99388.97;4968640;28;20197;-60
2022/08/06 07:21:48;;;;;;;2.83;1.80;;;;;;;19.99;53.44;99390.13;4968610;28;20218;-60
2022/08/06 07:24:16;;;;;;;3.20;1.63;;;;;;;19.94;53.75;99384.59;4970847;28;20206;-61
2022/08/06 07:26:44;;;;;;;5.17;1.70;;;;;;;20.10;53.01;99383.47;4986901;28;20624;-61
2022/08/06 07:29:12;;;;;;;3.67;1.70;;;;;;;20.25;52.86;99391.28;4975211;28;20668;-61
2022/08/06 07:31:41;;;;;;;5.47;1.83;;;;;;;20.27;52.86;99394.56;4970016;28;20214;-60
2022/08/06 07:34:09;;;;;;;8.80;1.80;;;;;;;20.35;52.48;99389.09;4976396;28;20202;-60
2022/08/06 07:36:53;;;;;;;6.40;1.90;;;;;;;20.42;51.93;99399.78;4975654;28;20742;-61
2022/08/06 07:39:24;;;;;;;2.27;1.40;;;;;;;20.45;51.63;99378.97;4969801;28;20208;-61
2022/08/06 07:41:53;;;;;;;4.73;1.90;;;;;;;20.41;50.91;99392.81;4972171;28;20217;-61
2022/08/06 07:44:22;;;;;;;2.33;1.60;;;;;;;20.58;50.77;99386.19;4970482;28;20225;-61
2022/08/06 07:46:54;;;;;;;3.40;1.70;;;;;;;20.42;50.77;99378.56;4969245;28;20210;-60
2022/08/06 07:49:23;;;;;;;6.23;2.00;;;;;;;20.42;51.05;99391.81;4970091;28;20185;-61
2022/08/06 07:51:53;;;;;;;3.03;1.60;;;;;;;20.44;50.55;99385.28;4970646;28;20223;-61
2022/08/06 07:54:22;;;;;;;6.67;1.70;;;;;;;20.62;49.74;99384.78;4974776;28;20204;-60
2022/08/06 07:56:49;;;;;;;4.03;1.67;;;;;;;20.72;49.88;99387.03;4972502;28;20197;-61
2022/08/06 07:59:16;;;;;;;3.10;1.57;;;;;;;20.79;49.61;99392.38;4969916;28;20203;-60
2022/08/06 08:01:44;;;;;;;9.93;1.90;;;;;;;20.71;49.22;99395.19;4969867;28;20928;-60
2022/08/06 08:07:02;;;;;;;2.93;1.63;;;;;;;20.67;48.60;99392.13;4969640;28;20212;-60
2022/08/06 08:09:30;;;;;;;2.17;1.70;;;;;;;20.58;48.26;99385.34;4970095;28;20214;-61
2022/08/06 08:11:57;;;;;;;5.20;1.90;;;;;;;20.41;49.11;99390.19;4975001;28;20213;-60
2022/08/06 08:14:25;;;;;;;2.47;2.00;;;;;;;20.51;48.16;99390.63;4973884;28;20216;-61
2022/08/06 08:16:52;;;;;;;4.30;1.63;;;;;;;20.55;47.89;99370.66;4974892;28;20209;-61
2022/08/06 08:19:27;;;;;;;2.00;1.33;;;;;;;20.68;47.19;99391.09;4973907;28;20200;-61
2022/08/06 08:21:56;;;;;;;4.13;1.60;;;;;;;20.59;47.74;99382.50;4973493;28;20227;-60
2022/08/06 08:24:23;;;;;;;4.77;1.70;;;;;;;20.77;47.25;99387.28;4971165;28;20196;-60
2022/08/06 08:26:50;;;;;;;7.43;2.00;;;;;;;20.72;47.28;99397.66;4971733;28;20205;-60
2022/08/06 08:29:17;;;;;;;3.13;1.53;;;;;;;20.75;47.11;99394.59;4972239;28;20224;-61
2022/08/06 08:31:44;;;;;;;3.40;1.80;;;;;;;20.87;47.15;99386.91;4971158;28;20227;-61
2022/08/06 08:34:11;;;;;;;1.67;1.37;;;;;;;20.76;46.23;99400.72;4970316;28;20204;-61
2022/08/06 08:36:39;;;;;;;3.00;1.43;;;;;;;20.88;45.51;99393.84;4970408;28;20216;-61
2022/08/06 08:39:07;;;;;;;2.73;1.30;;;;;;;20.96;45.70;99394.69;4969560;28;20206;-61
2022/08/06 08:41:37;;;;;;;1.73;1.30;;;;;;;21.02;45.63;99391.22;4971130;28;20216;-61
2022/08/06 08:44:06;;;;;;;3.60;1.33;;;;;;;21.09;45.23;99403.53;4973906;28;20199;-61
2022/08/06 08:46:36;;;;;;;4.73;1.23;;;;;;;21.13;44.67;99393.31;4969956;28;20278;-61
2022/08/06 08:49:05;;;;;;;1.80;1.37;;;;;;;21.11;44.94;99397.19;4970825;28;20288;-60
2022/08/06 08:51:34;;;;;;;6.87;1.50;;;;;;;21.22;44.61;99396.56;4968536;28;20261;-61
2022/08/06 08:54:06;;;;;;;7.13;2.10;;;;;;;21.18;44.76;99390.88;4970864;28;20193;-61
2022/08/06 08:56:33;;;;;;;3.60;1.50;;;;;;;21.24;44.44;99395.38;4968682;28;20205;-61
2022/08/06 08:59:02;;;;;;;2.77;1.60;;;;;;;21.27;44.22;99391.47;4968324;28;20227;-61
2022/08/06 09:01:29;;;;;;;3.50;1.50;;;;;;;21.32;44.07;99402.31;4967338;28;20292;-60
2022/08/06 09:03:56;;;;;;;1.77;1.00;;;;;;;21.30;43.78;99400.91;4970258;28;20300;-61
2022/08/06 09:06:24;;;;;;;3.23;1.40;;;;;;;21.25;44.13;99404.13;4969202;28;20230;-60
2022/08/06 09:08:52;;;;;;;2.10;1.20;;;;;;;21.20;43.89;99401.31;4968031;28;20615;-61
2022/08/06 09:11:20;;;;;;;2.93;1.20;;;;;;;21.20;43.83;99399.44;4970079;28;20211;-61
2022/08/06 09:13:47;;;;;;;3.03;1.27;;;;;;;21.36;43.64;99402.75;4970467;28;20196;-62
2022/08/06 09:16:14;;;;;;;3.40;1.27;;;;;;;21.50;43.39;99401.75;4969528;28;20193;-62
2022/08/06 09:18:41;;;;;;;1.63;1.20;;;;;;;21.61;43.10;99402.16;4969346;28;20198;-61
2022/08/06 09:21:08;;;;;;;3.73;1.30;;;;;;;22.01;42.13;99404.81;4969363;28;20205;-61
2022/08/06 09:23:38;;;;;;;3.27;1.30;;;;;;;22.05;41.39;99405.22;4971864;28;20562;-61
2022/08/06 09:26:06;;;;;;;1.33;1.00;;;;;;;22.32;41.17;99408.63;4969348;28;20221;-61
2022/08/06 09:28:36;;;;;;;1.73;1.17;;;;;;;22.50;40.31;99400.00;4972718;28;20210;-62
2022/08/06 09:31:06;;;;;;;4.30;1.10;;;;;;;22.49;40.36;99406.34;4970528;28;20204;-62
2022/08/06 09:33:35;;;;;;;3.33;0.93;;;;;;;22.57;40.39;99405.31;4970476;28;20183;-62
2022/08/06 09:36:03;;;;;;;2.80;0.90;;;;;;;22.33;39.71;99404.13;4969082;28;20310;-62
2022/08/06 09:38:31;;;;;;;1.40;0.90;;;;;;;22.46;39.68;99405.97;4971320;28;20199;-61
2022/08/06 09:41:09;;;;;;;4.63;1.20;;;;;;;22.53;39.87;99402.25;4968288;28;20202;-61
2022/08/06 09:43:38;;;;;;;3.07;1.27;;;;;;;22.53;39.12;99396.94;4968194;28;20196;-62
2022/08/06 09:46:06;;;;;;;4.17;1.20;;;;;;;22.43;39.33;99399.19;4968186;28;20229;-62
2022/08/06 09:48:33;;;;;;;4.13;1.00;;;;;;;22.48;38.76;99395.94;4967433;28;20192;-62
2022/08/06 09:51:00;;;;;;;6.10;1.13;;;;;;;22.64;38.03;99400.78;4967180;28;20224;-62
2022/08/06 09:53:27;;;;;;;3.07;1.00;;;;;;;22.53;38.33;99393.47;4969395;28;20271;-62
2022/08/06 09:55:56;;;;;;;4.30;0.87;;;;;;;22.61;37.76;99400.38;4969075;28;20207;-62
2022/08/06 09:58:35;;;;;;;1.30;0.93;;;;;;;22.62;38.05;99410.00;4967570;28;20259;-62
2022/08/06 10:01:14;;;;;;;5.20;1.50;;;;;;;22.52;37.50;99400.59;4966721;28;20596;-61
2022/08/06 10:03:41;;;;;;;2.77;1.13;;;;;;;22.27;38.03;99403.91;4966219;28;20246;-61
2022/08/06 10:06:11;;;;;;;2.43;1.00;;;;;;;22.34;37.45;99401.25;4969912;28;20223;-61
2022/08/06 10:08:38;;;;;;;2.80;0.80;;;;;;;22.69;38.78;99403.63;4968612;28;20250;-60
2022/08/06 10:11:06;;;;;;;2.27;0.97;;;;;;;22.79;37.19;99399.72;4969319;28;20263;-62
2022/08/06 10:13:33;;;;;;;3.03;1.20;;;;;;;22.90;36.77;99407.00;4967726;28;20197;-62
2022/08/06 10:16:02;;;;;;;2.87;1.13;;;;;;;22.99;36.28;99408.38;4965762;28;20271;-62
2022/08/06 10:18:38;;;;;;;3.73;1.23;;;;;;;22.98;35.97;99413.94;4965941;28;20208;-62
2022/08/06 10:21:07;;;;;;;2.80;1.53;;;;;;;23.00;36.69;99403.88;4966575;28;20710;-61
2022/08/06 10:23:36;;;;;;;3.72;0.90;;;;;;;23.03;36.30;99405.28;4969475;28;20466;-62
2022/08/06 10:26:06;;;;;;;3.67;1.10;;;;;;;23.15;36.35;99400.94;4968611;28;20212;-62
2022/08/06 10:28:34;;;;;;;1.20;1.10;;;;;;;23.20;36.06;99400.28;4968013;28;20585;-62
2022/08/06 10:31:03;;;;;;;1.67;0.90;;;;;;;23.09;36.04;99410.59;4972560;28;20212;-62
2022/08/06 10:33:40;;;;;;;2.70;1.00;;;;;;;23.08;36.35;99405.47;4969943;28;20199;-62
2022/08/06 10:36:10;;;;;;;3.97;0.90;;;;;;;23.16;36.17;99399.91;4967320;28;20227;-61
2022/08/06 10:38:41;;;;;;;4.60;1.20;;;;;;;23.24;35.81;99396.19;4967104;28;20748;-62
2022/08/06 10:41:09;;;;;;;5.47;1.47;;;;;;;23.31;35.92;99399.63;4969969;28;20211;-61
2022/08/06 10:43:38;;;;;;;3.47;1.13;;;;;;;23.11;36.16;99381.91;4967831;28;20211;-62
2022/08/06 10:46:06;;;;;;;1.10;0.83;;;;;;;23.34;35.97;99387.72;4970043;28;20224;-62
2022/08/06 10:48:35;;;;;;;4.83;1.00;;;;;;;23.31;35.46;99396.16;4968321;28;20200;-62
2022/08/06 10:51:03;;;;;;;2.70;1.10;;;;;;;23.25;35.75;99393.31;4966540;28;20594;-61
2022/08/06 10:53:31;;;;;;;2.03;0.90;;;;;;;23.34;35.81;99382.41;4972006;28;20280;-61
2022/08/06 10:56:01;;;;;;;2.80;1.23;;;;;;;23.62;35.57;99375.84;4969221;28;20214;-61
2022/08/06 10:58:29;;;;;;;2.97;1.00;;;;;;;23.80;35.16;99383.03;4968276;28;20194;-62
2022/08/06 11:00:57;;;;;;;2.03;1.00;;;;;;;23.79;34.96;99384.91;4965805;28;20197;-62
2022/08/06 11:03:32;;;;;;;3.47;1.00;;;;;;;24.00;34.58;99386.38;4965198;28;20216;-62
2022/08/06 11:06:17;;;;;;;2.27;0.83;;;;;;;23.72;34.52;99368.16;4967582;28;20297;-62
2022/08/06 11:09:16;;;;;;;1.83;1.10;;;;;;;23.92;34.37;99377.78;4967495;28;20219;-62
2022/08/06 11:11:59;;;;;;;2.97;1.00;;;;;;;24.29;34.16;99372.53;4966172;28;20213;-60
2022/08/06 11:14:27;;;;;;;3.07;0.90;;;;;;;24.36;33.70;99380.47;4966023;28;20200;-60
2022/08/06 11:16:58;;;;;;;3.60;0.90;;;;;;;24.03;34.34;99367.25;4965488;28;20257;-61
2022/08/06 11:19:42;;;;;;;5.37;1.40;;;;;;;23.84;34.56;99368.25;4967019;28;20656;-61
2022/08/06 11:22:35;;;;;;;3.23;1.00;;;;;;;23.93;34.70;99361.59;4968732;28;20257;-61
2022/08/06 11:25:02;;;;;;;3.93;0.87;;;;;;;24.11;34.04;99365.34;4969671;28;20208;-62
2022/08/06 11:27:48;;;;;;;2.17;1.10;;;;;;;24.34;33.96;99371.88;4966090;28;20572;-62
2022/08/06 11:30:15;;;;;;;1.03;0.93;;;;;;;24.39;33.35;99374.66;4966051;28;20289;-62
2022/08/06 11:32:47;;;;;;;2.33;1.07;;;;;;;24.08;33.38;99360.44;4966845;28;20688;-62
2022/08/06 11:35:39;;;;;;;2.40;0.97;;;;;;;24.16;34.16;99358.28;4969129;28;20197;-61
2022/08/06 11:38:09;;;;;;;2.83;1.00;;;;;;;24.12;33.74;99348.31;4965737;28;20669;-61
2022/08/06 11:40:58;;;;;;;2.93;1.00;;;;;;;24.35;33.61;99354.81;4966764;28;20209;-61
2022/08/06 11:43:47;;;;;;;3.13;1.10;;;;;;;24.28;33.67;99354.88;4967786;28;20207;-60
2022/08/06 11:46:26;;;;;;;3.37;1.07;;;;;;;24.66;33.45;99344.97;4967502;28;20224;-60
2022/08/06 11:49:22;;;;;;;3.27;1.10;;;;;;;24.47;33.40;99342.34;4968248;28;20598;-60
2022/08/06 11:51:52;;;;;;;2.13;1.00;;;;;;;24.28;33.65;99339.72;4969485;28;20230;-60